Hooks, Texas
Current Conditions -  °F | °C
As of 2:53 AM on Friday 31 Oct 2014 (Local Time) from KTXK Reporting Station
Clear Clear  
Wind Chill: 56°   Ceiling: Unl
Heat Index: 56°   Visibility: 10mi
Dew Point: 45°   Wind: 6mph
Humidity: 67%   Direction: 330°NNW
Pressure: 30.1"   Gusts: NA
Location:  33.47°N, 94.29°W
Report Text: KTXK 310753Z AUTO 33005KT 10SM CLR 13/07 A3010 RMK AO2 SLP190 T01330072
Loading
Personal Weather Stations






























Interactive Weather Map
Tropical Storm Tracking
New forecast layout! Learn more

10-Day Weather Forecast

Advertisements
Track Severe Weather on mobile